Terminal Aerodrome Forecast
Issued by NWS Caribou, ME

Home | Current Version | Previous Version | Text Only | Print | Product List | Glossary On
Versions: 1 2 3 4 5 6 7 8 9 10 11 12 13 14 15 16 17
347
FTUS41 KCAR 312331
TAFCAR
TAF
KCAR 312331Z 0100/0124 33005KT P6SM VCSH BKN045
     FM010400 33004KT P6SM BKN045
     FM010730 VRB03KT 3SM BR SCT045
     FM011000 VRB03KT P6SM SCT050
     FM011400 36007KT P6SM BKN045=

USA.gov is the U.S. government's official web portal to all federal, state and local government web resources and services.